sensor_id;sensor_type;location;lat;lon;timestamp;pressure;altitude;pressure_sealevel;temperature;humidity
75867;BME280;64513;56.258;43.980;2023-04-03T00:00:33;99809.78;;;8.93;68.81
75867;BME280;64513;56.258;43.980;2023-04-03T00:02:57;99812.95;;;8.95;68.85
75867;BME280;64513;56.258;43.980;2023-04-03T00:05:21;99819.02;;;8.96;68.93
75867;BME280;64513;56.258;43.980;2023-04-03T00:07:45;99818.23;;;8.95;69.09
75867;BME280;64513;56.258;43.980;2023-04-03T00:10:11;99812.16;;;8.95;68.82
75867;BME280;64513;56.258;43.980;2023-04-03T00:12:36;99821.13;;;8.94;68.70
75867;BME280;64513;56.258;43.980;2023-04-03T00:15:00;99813.75;;;8.96;68.58
75867;BME280;64513;56.258;43.980;2023-04-03T00:17:25;99811.37;;;8.94;68.58
75867;BME280;64513;56.258;43.980;2023-04-03T00:19:50;99818.49;;;8.94;68.90
75867;BME280;64513;56.258;43.980;2023-04-03T00:22:14;99811.37;;;8.94;69.04
75867;BME280;64513;56.258;43.980;2023-04-03T00:24:38;99814.80;;;8.95;69.10
75867;BME280;64513;56.258;43.980;2023-04-03T00:27:02;99811.11;;;8.96;68.93
75867;BME280;64513;56.258;43.980;2023-04-03T00:29:26;99818.49;;;8.94;68.78
75867;BME280;64513;56.258;43.980;2023-04-03T00:31:50;99809.52;;;8.95;68.42
75867;BME280;64513;56.258;43.980;2023-04-03T00:34:14;99807.94;;;8.94;68.38
75867;BME280;64513;56.258;43.980;2023-04-03T00:36:38;99810.05;;;8.92;68.36
75867;BME280;64513;56.258;43.980;2023-04-03T00:39:03;99813.73;;;8.91;68.22
75867;BME280;64513;56.258;43.980;2023-04-03T00:41:27;99814.00;;;8.89;68.14
75867;BME280;64513;56.258;43.980;2023-04-03T00:43:51;99812.41;;;8.88;68.12
75867;BME280;64513;56.258;43.980;2023-04-03T00:46:15;99807.14;;;8.88;68.15
75867;BME280;64513;56.258;43.980;2023-04-03T00:48:42;99817.69;;;8.88;68.12
75867;BME280;64513;56.258;43.980;2023-04-03T00:51:09;99810.03;;;8.87;68.07
75867;BME280;64513;56.258;43.980;2023-04-03T00:53:55;99816.36;;;8.86;68.03
75867;BME280;64513;56.258;43.980;2023-04-03T00:56:21;99818.20;;;8.85;68.01
75867;BME280;64513;56.258;43.980;2023-04-03T01:01:32;99822.95;;;8.83;68.04
75867;BME280;64513;56.258;43.980;2023-04-03T01:07:02;99820.86;;;8.80;67.97
75867;BME280;64513;56.258;43.980;2023-04-03T01:08:53;99820.06;;;8.79;67.76
75867;BME280;64513;56.258;43.980;2023-04-03T01:11:19;99813.21;;;8.78;67.88
75867;BME280;64513;56.258;43.980;2023-04-03T01:13:43;99810.04;;;8.76;67.88
75867;BME280;64513;56.258;43.980;2023-04-03T01:16:07;99805.56;;;8.77;68.05
75867;BME280;64513;56.258;43.980;2023-04-03T01:18:32;99802.13;;;8.76;67.96
75867;BME280;64513;56.258;43.980;2023-04-03T01:27:09;99809.51;;;8.74;67.83
75867;BME280;64513;56.258;43.980;2023-04-03T01:29:34;99821.11;;;8.73;67.89
75867;BME280;64513;56.258;43.980;2023-04-03T01:32:00;99813.45;;;8.72;68.09
75867;BME280;64513;56.258;43.980;2023-04-03T01:34:25;99814.25;;;8.72;68.46
75867;BME280;64513;56.258;43.980;2023-04-03T01:36:50;99819.52;;;8.72;68.40
75867;BME280;64513;56.258;43.980;2023-04-03T01:39:14;99820.31;;;8.73;68.65
75867;BME280;64513;56.258;43.980;2023-04-03T01:41:39;99819.52;;;8.72;68.43
75867;BME280;64513;56.258;43.980;2023-04-03T01:44:03;99821.62;;;8.70;68.29
75867;BME280;64513;56.258;43.980;2023-04-03T01:46:27;99819.25;;;8.69;68.14
75867;BME280;64513;56.258;43.980;2023-04-03T01:48:51;99817.41;;;8.69;68.17
75867;BME280;64513;56.258;43.980;2023-04-03T01:51:16;99820.04;;;8.69;68.34
75867;BME280;64513;56.258;43.980;2023-04-03T01:53:41;99816.35;;;8.70;68.50
75867;BME280;64513;56.258;43.980;2023-04-03T01:56:05;99813.98;;;8.69;68.38
75867;BME280;64513;56.258;43.980;2023-04-03T01:58:30;99816.61;;;8.69;68.37
75867;BME280;64513;56.258;43.980;2023-04-03T02:00:54;99808.70;;;8.69;68.37
75867;BME280;64513;56.258;43.980;2023-04-03T02:03:18;99814.77;;;8.69;68.33
75867;BME280;64513;56.258;43.980;2023-04-03T02:05:42;99816.88;;;8.67;68.38
75867;BME280;64513;56.258;43.980;2023-04-03T02:08:07;99809.75;;;8.68;68.51
75867;BME280;64513;56.258;43.980;2023-04-03T02:10:31;99809.75;;;8.68;68.49
75867;BME280;64513;56.258;43.980;2023-04-03T02:12:56;99799.47;;;8.66;68.56
75867;BME280;64513;56.258;43.980;2023-04-03T02:15:20;99810.02;;;8.66;68.66
75867;BME280;64513;56.258;43.980;2023-04-03T02:17:44;99808.45;;;8.65;68.76
75867;BME280;64513;56.258;43.980;2023-04-03T02:20:09;99807.92;;;8.63;68.57
75867;BME280;64513;56.258;43.980;2023-04-03T02:22:33;99810.30;;;8.65;68.59
75867;BME280;64513;56.258;43.980;2023-04-03T02:24:57;99812.14;;;8.64;68.59
75867;BME280;64513;56.258;43.980;2023-04-03T02:27:22;99809.77;;;8.63;68.49
75867;BME280;64513;56.258;43.980;2023-04-03T02:29:46;99807.39;;;8.61;68.56
75867;BME280;64513;56.258;43.980;2023-04-03T02:32:10;99807.65;;;8.60;68.59
75867;BME280;64513;56.258;43.980;2023-04-03T02:34:34;99811.34;;;8.59;68.42
75867;BME280;64513;56.258;43.980;2023-04-03T02:36:58;99807.91;;;8.58;68.33
75867;BME280;64513;56.258;43.980;2023-04-03T02:39:22;99813.44;;;8.57;68.39
75867;BME280;64513;56.258;43.980;2023-04-03T02:41:47;99803.16;;;8.55;68.42
75867;BME280;64513;56.258;43.980;2023-04-03T02:44:12;99810.53;;;8.53;68.44
75867;BME280;64513;56.258;43.980;2023-04-03T02:46:36;99807.89;;;8.53;68.51
75867;BME280;64513;56.258;43.980;2023-04-03T02:49:00;99807.36;;;8.51;68.69
75867;BME280;64513;56.258;43.980;2023-04-03T02:51:25;99797.86;;;8.50;68.59
75867;BME280;64513;56.258;43.980;2023-04-03T02:53:50;99805.27;;;8.48;68.64
75867;BME280;64513;56.258;43.980;2023-04-03T02:56:14;99807.11;;;8.48;68.60
75867;BME280;64513;56.258;43.980;2023-04-03T02:58:38;99801.05;;;8.47;68.58
75867;BME280;64513;56.258;43.980;2023-04-03T03:01:02;99816.06;;;8.47;68.75
75867;BME280;64513;56.258;43.980;2023-04-03T03:03:27;99816.86;;;8.47;68.98
75867;BME280;64513;56.258;43.980;2023-04-03T03:08:37;99816.31;;;8.50;68.96
75867;BME280;64513;56.258;43.980;2023-04-03T03:11:02;99817.11;;;8.51;68.88
75867;BME280;64513;56.258;43.980;2023-04-03T03:13:27;99819.48;;;8.52;68.91
75867;BME280;64513;56.258;43.980;2023-04-03T03:15:51;99822.12;;;8.52;68.80
75867;BME280;64513;56.258;43.980;2023-04-03T03:18:15;99821.86;;;8.54;68.70
75867;BME280;64513;56.258;43.980;2023-04-03T03:20:39;99818.17;;;8.55;68.73
75867;BME280;64513;56.258;43.980;2023-04-03T03:23:03;99815.28;;;8.56;69.03
75867;BME280;64513;56.258;43.980;2023-04-03T03:25:27;99814.77;;;8.59;68.87
75867;BME280;64513;56.258;43.980;2023-04-03T03:27:52;99818.19;;;8.60;68.79
75867;BME280;64513;56.258;43.980;2023-04-03T03:30:16;99812.66;;;8.61;68.63
75867;BME280;64513;56.258;43.980;2023-04-03T03:32:40;99812.14;;;8.64;68.35
75867;BME280;64513;56.258;43.980;2023-04-03T03:35:05;99816.88;;;8.67;68.55
75867;BME280;64513;56.258;43.980;2023-04-03T03:37:29;99811.08;;;8.70;68.73
75867;BME280;64513;56.258;43.980;2023-04-03T03:39:53;99812.14;;;8.74;68.99
75867;BME280;64513;56.258;43.980;2023-04-03T03:42:18;99816.90;;;8.77;69.07
75867;BME280;64513;56.258;43.980;2023-04-03T03:44:42;99814.80;;;8.79;69.10
75867;BME280;64513;56.258;43.980;2023-04-03T03:47:06;99817.41;;;8.85;69.03
75867;BME280;64513;56.258;43.980;2023-04-03T03:49:32;99816.10;;;8.87;69.05
75867;BME280;64513;56.258;43.980;2023-04-03T03:51:56;99820.06;;;8.90;69.01
75867;BME280;64513;56.258;43.980;2023-04-03T03:54:21;99812.16;;;8.95;68.79
75867;BME280;64513;56.258;43.980;2023-04-03T03:56:45;99815.57;;;9.00;68.59
75867;BME280;64513;56.258;43.980;2023-04-03T04:01:55;99811.09;;;9.21;67.94
75867;BME280;64513;56.258;43.980;2023-04-03T04:06:45;99810.24;;;9.46;67.29
75867;BME280;64513;56.258;43.980;2023-04-03T04:09:09;99816.54;;;9.60;67.05
75867;BME280;64513;56.258;43.980;2023-04-03T04:11:34;99810.94;;;9.82;66.82
75867;BME280;64513;56.258;43.980;2023-04-03T04:13:58;99809.84;;;9.93;67.03
75867;BME280;64513;56.258;43.980;2023-04-03T04:16:22;99805.78;;;10.16;66.86
75867;BME280;64513;56.258;43.980;2023-04-03T04:18:46;99807.05;;;10.34;67.44
75867;BME280;64513;56.258;43.980;2023-04-03T04:21:10;99810.64;;;10.53;67.75
75867;BME280;64513;56.258;43.980;2023-04-03T04:23:34;99803.06;;;10.75;67.55
75867;BME280;64513;56.258;43.980;2023-04-03T04:25:59;99803.45;;;10.93;67.51
75867;BME280;64513;56.258;43.980;2023-04-03T04:28:23;99803.23;;;11.18;67.26
75867;BME280;64513;56.258;43.980;2023-04-03T04:30:47;99802.53;;;11.36;67.54
75867;BME280;64513;56.258;43.980;2023-04-03T04:33:11;99808.14;;;11.58;67.67
75867;BME280;64513;56.258;43.980;2023-04-03T04:35:36;99798.94;;;11.80;68.36
75867;BME280;64513;56.258;43.980;2023-04-03T04:38:00;99804.47;;;12.02;68.51
75867;BME280;64513;56.258;43.980;2023-04-03T04:40:25;99801.98;;;12.29;68.71
75867;BME280;64513;56.258;43.980;2023-04-03T04:42:50;99808.31;;;12.52;69.06
75867;BME280;64513;56.258;43.980;2023-04-03T04:45:15;99812.43;;;12.77;68.65
75867;BME280;64513;56.258;43.980;2023-04-03T04:47:39;99810.68;;;13.05;68.70
75867;BME280;64513;56.258;43.980;2023-04-03T04:50:04;99814.20;;;13.33;68.89
75867;BME280;64513;56.258;43.980;2023-04-03T04:52:28;99818.26;;;13.58;68.89
75867;BME280;64513;56.258;43.980;2023-04-03T04:54:52;99821.70;;;13.86;68.88
75867;BME280;64513;56.258;43.980;2023-04-03T04:57:17;99825.94;;;14.14;68.43
75867;BME280;64513;56.258;43.980;2023-04-03T04:59:41;99822.16;;;14.43;67.88
75867;BME280;64513;56.258;43.980;2023-04-03T05:02:05;99823.64;;;14.71;67.37
75867;BME280;64513;56.258;43.980;2023-04-03T05:04:29;99821.94;;;14.97;66.41
75867;BME280;64513;56.258;43.980;2023-04-03T05:06:54;99817.27;;;15.25;64.79
75867;BME280;64513;56.258;43.980;2023-04-03T05:09:18;99822.77;;;15.60;64.91
75867;BME280;64513;56.258;43.980;2023-04-03T05:11:42;99820.53;;;15.93;64.78
75867;BME280;64513;56.258;43.980;2023-04-03T05:14:07;99820.30;;;16.20;64.64
75867;BME280;64513;56.258;43.980;2023-04-03T05:16:32;99830.05;;;16.51;64.35
75867;BME280;64513;56.258;43.980;2023-04-03T05:18:56;99817.36;;;16.82;63.66
75867;BME280;64513;56.258;43.980;2023-04-03T05:21:20;99824.19;;;17.17;62.08
75867;BME280;64513;56.258;43.980;2023-04-03T05:23:46;99823.50;;;17.46;61.56
75867;BME280;64513;56.258;43.980;2023-04-03T05:26:10;99828.70;;;17.81;60.63
75867;BME280;64513;56.258;43.980;2023-04-03T05:28:34;99829.30;;;18.16;59.34
75867;BME280;64513;56.258;43.980;2023-04-03T05:30:59;99837.28;;;18.45;58.59
75867;BME280;64513;56.258;43.980;2023-04-03T05:33:24;99831.31;;;18.69;57.52
75867;BME280;64513;56.258;43.980;2023-04-03T05:35:48;99826.36;;;18.92;55.57
75867;BME280;64513;56.258;43.980;2023-04-03T05:38:13;99826.00;;;19.14;54.08
75867;BME280;64513;56.258;43.980;2023-04-03T05:40:37;99825.25;;;19.38;53.93
75867;BME280;64513;56.258;43.980;2023-04-03T05:43:01;99829.00;;;19.58;53.08
75867;BME280;64513;56.258;43.980;2023-04-03T05:45:26;99829.02;;;19.82;52.78
75867;BME280;64513;56.258;43.980;2023-04-03T05:47:50;99819.04;;;20.07;53.58
75867;BME280;64513;56.258;43.980;2023-04-03T05:50:14;99825.13;;;20.32;52.61
75867;BME280;64513;56.258;43.980;2023-04-03T05:52:41;99821.30;;;20.57;52.37
75867;BME280;64513;56.258;43.980;2023-04-03T05:55:06;99827.46;;;20.86;53.03
75867;BME280;64513;56.258;43.980;2023-04-03T05:57:31;99822.83;;;21.14;52.58
75867;BME280;64513;56.258;43.980;2023-04-03T05:59:55;99830.45;;;21.40;52.63
75867;BME280;64513;56.258;43.980;2023-04-03T06:02:22;99830.61;;;21.63;52.79
75867;BME280;64513;56.258;43.980;2023-04-03T06:04:47;99833.03;;;21.84;52.29
75867;BME280;64513;56.258;43.980;2023-04-03T06:07:14;99837.30;;;22.00;49.94
75867;BME280;64513;56.258;43.980;2023-04-03T06:09:40;99846.03;;;22.13;48.42
75867;BME280;64513;56.258;43.980;2023-04-03T06:12:04;99843.30;;;22.29;47.71
75867;BME280;64513;56.258;43.980;2023-04-03T06:14:28;99842.73;;;22.39;46.48
75867;BME280;64513;56.258;43.980;2023-04-03T06:16:53;99832.20;;;22.50;46.60
75867;BME280;64513;56.258;43.980;2023-04-03T06:19:18;99830.77;;;22.56;46.43
75867;BME280;64513;56.258;43.980;2023-04-03T06:21:42;99835.53;;;22.62;45.85
75867;BME280;64513;56.258;43.980;2023-04-03T06:24:07;99841.78;;;22.66;45.49
75867;BME280;64513;56.258;43.980;2023-04-03T06:26:31;99838.08;;;22.74;45.41
75867;BME280;64513;56.258;43.980;2023-04-03T06:28:55;99831.42;;;22.88;45.77
75867;BME280;64513;56.258;43.980;2023-04-03T06:31:19;99838.52;;;22.96;45.59
75867;BME280;64513;56.258;43.980;2023-04-03T06:33:43;99830.27;;;23.08;45.03
75867;BME280;64513;56.258;43.980;2023-04-03T06:36:09;99837.05;;;23.21;44.45
75867;BME280;64513;56.258;43.980;2023-04-03T06:38:34;99827.20;;;23.32;44.21
75867;BME280;64513;56.258;43.980;2023-04-03T06:40:58;99833.27;;;23.49;44.72
75867;BME280;64513;56.258;43.980;2023-04-03T06:43:23;99833.52;;;23.63;45.21
75867;BME280;64513;56.258;43.980;2023-04-03T06:45:47;99826.90;;;23.83;45.72
75867;BME280;64513;56.258;43.980;2023-04-03T06:48:12;99830.23;;;23.99;45.43
75867;BME280;64513;56.258;43.980;2023-04-03T06:50:36;99833.54;;;24.16;44.97
75867;BME280;64513;56.258;43.980;2023-04-03T06:53:00;99835.27;;;24.27;43.64
75867;BME280;64513;56.258;43.980;2023-04-03T06:55:25;99843.11;;;24.36;42.67
75867;BME280;64513;56.258;43.980;2023-04-03T06:57:49;99831.19;;;24.40;41.68
75867;BME280;64513;56.258;43.980;2023-04-03T07:00:14;99829.67;;;24.43;42.05
75867;BME280;64513;56.258;43.980;2023-04-03T07:02:38;99834.72;;;24.44;41.62
75867;BME280;64513;56.258;43.980;2023-04-03T07:05:03;99838.49;;;24.36;41.68
75867;BME280;64513;56.258;43.980;2023-04-03T07:07:27;99833.76;;;24.30;40.79
75867;BME280;64513;56.258;43.980;2023-04-03T07:09:51;99826.27;;;24.20;40.84
75867;BME280;64513;56.258;43.980;2023-04-03T07:12:16;99840.64;;;24.24;40.83
75867;BME280;64513;56.258;43.980;2023-04-03T07:14:40;99831.31;;;24.21;40.85
75867;BME280;64513;56.258;43.980;2023-04-03T07:17:05;99831.76;;;24.23;40.59
75867;BME280;64513;56.258;43.980;2023-04-03T07:19:30;99835.24;;;24.24;40.46
75867;BME280;64513;56.258;43.980;2023-04-03T07:21:55;99834.06;;;24.25;40.25
75867;BME280;64513;56.258;43.980;2023-04-03T07:24:19;99833.70;;;24.26;39.84
75867;BME280;64513;56.258;43.980;2023-04-03T07:26:43;99827.94;;;24.28;40.02
75867;BME280;64513;56.258;43.980;2023-04-03T07:29:07;99831.42;;;24.28;40.58
75867;BME280;64513;56.258;43.980;2023-04-03T07:31:32;99825.29;;;24.31;40.14
75867;BME280;64513;56.258;43.980;2023-04-03T07:33:56;99826.54;;;24.37;40.50
75867;BME280;64513;56.258;43.980;2023-04-03T07:36:22;99827.70;;;24.40;40.25
75867;BME280;64513;56.258;43.980;2023-04-03T07:38:46;99831.75;;;24.53;40.17
75867;BME280;64513;56.258;43.980;2023-04-03T07:41:30;99835.35;;;24.64;40.26
75867;BME280;64513;56.258;43.980;2023-04-03T07:43:55;99840.09;;;24.74;39.63
75867;BME280;64513;56.258;43.980;2023-04-03T07:46:19;99842.57;;;24.87;40.04
75867;BME280;64513;56.258;43.980;2023-04-03T07:48:43;99842.22;;;24.92;39.35
75867;BME280;64513;56.258;43.980;2023-04-03T07:51:08;99842.75;;;25.01;39.60
75867;BME280;64513;56.258;43.980;2023-04-03T07:53:32;99839.28;;;25.04;38.80
75867;BME280;64513;56.258;43.980;2023-04-03T07:55:59;99843.13;;;24.99;38.73
75867;BME280;64513;56.258;43.980;2023-04-03T07:58:24;99845.45;;;25.01;38.54
75867;BME280;64513;56.258;43.980;2023-04-03T08:00:48;99833.86;;;25.00;38.12
75867;BME280;64513;56.258;43.980;2023-04-03T08:03:13;99831.52;;;24.99;37.77
75867;BME280;64513;56.258;43.980;2023-04-03T08:05:40;99837.66;;;24.96;37.60
75867;BME280;64513;56.258;43.980;2023-04-03T08:08:06;99843.85;;;24.96;38.13
75867;BME280;64513;56.258;43.980;2023-04-03T08:10:31;99844.56;;;24.93;37.55
75867;BME280;64513;56.258;43.980;2023-04-03T08:12:56;99835.10;;;24.76;37.67
75867;BME280;64513;56.258;43.980;2023-04-03T08:15:20;99838.91;;;24.72;37.97
75867;BME280;64513;56.258;43.980;2023-04-03T08:17:44;99836.50;;;24.63;37.55
75867;BME280;64513;56.258;43.980;2023-04-03T08:20:09;99842.05;;;24.44;37.51
75867;BME280;64513;56.258;43.980;2023-04-03T08:22:34;99833.03;;;24.33;37.49
75867;BME280;64513;56.258;43.980;2023-04-03T08:24:58;99835.27;;;24.27;37.82
75867;BME280;64513;56.258;43.980;2023-04-03T08:27:23;99830.48;;;24.17;38.03
75867;BME280;64513;56.258;43.980;2023-04-03T08:29:47;99842.01;;;24.14;38.78
75867;BME280;64513;56.258;43.980;2023-04-03T08:32:12;99837.33;;;24.11;38.57
75867;BME280;64513;56.258;43.980;2023-04-03T08:34:37;99833.06;;;24.10;38.78
75867;BME280;64513;56.258;43.980;2023-04-03T08:37:01;99830.36;;;24.10;38.88
75867;BME280;64513;56.258;43.980;2023-04-03T08:39:26;99822.68;;;24.12;39.29
75867;BME280;64513;56.258;43.980;2023-04-03T08:41:50;99833.04;;;24.06;39.54
75867;BME280;64513;56.258;43.980;2023-04-03T08:47:40;99839.58;;;24.05;38.55
75867;BME280;64513;56.258;43.980;2023-04-03T08:50:07;99832.84;;;23.92;38.23
75867;BME280;64513;56.258;43.980;2023-04-03T09:00:50;99819.73;;;23.68;38.75
75867;BME280;64513;56.258;43.980;2023-04-03T09:03:17;99833.42;;;23.56;38.72
75867;BME280;64513;56.258;43.980;2023-04-03T09:18:16;99835.25;;;22.87;39.47
75867;BME280;64513;56.258;43.980;2023-04-03T09:23:34;99825.30;;;22.52;38.72
75867;BME280;64513;56.258;43.980;2023-04-03T09:29:05;99828.39;;;22.16;39.77
75867;BME280;64513;56.258;43.980;2023-04-03T09:31:50;99826.32;;;21.93;39.90
75867;BME280;64513;56.258;43.980;2023-04-03T09:40:21;99831.30;;;21.44;40.56
75867;BME280;64513;56.258;43.980;2023-04-03T09:42:32;99822.37;;;21.24;40.36
75867;BME280;64513;56.258;43.980;2023-04-03T09:45:33;99829.95;;;21.07;40.05
75867;BME280;64513;56.258;43.980;2023-04-03T09:47:46;99840.66;;;20.91;40.27
75867;BME280;64513;56.258;43.980;2023-04-03T09:50:30;99840.28;;;20.77;40.60
75867;BME280;64513;56.258;43.980;2023-04-03T09:52:56;99838.31;;;20.61;40.95
75867;BME280;64513;56.258;43.980;2023-04-03T09:55:22;99829.15;;;20.50;41.00
75867;BME280;64513;56.258;43.980;2023-04-03T09:58:22;99830.76;;;20.39;40.71
75867;BME280;64513;56.258;43.980;2023-04-03T10:00:36;99830.31;;;20.25;40.51
75867;BME280;64513;56.258;43.980;2023-04-03T10:03:01;99827.32;;;20.14;40.75
75867;BME280;64513;56.258;43.980;2023-04-03T10:13:28;99830.36;;;19.76;41.32
75867;BME280;64513;56.258;43.980;2023-04-03T10:16:13;99826.89;;;19.64;41.47
75867;BME280;64513;56.258;43.980;2023-04-03T10:57:20;99792.94;;;18.77;43.14
75867;BME280;64513;56.258;43.980;2023-04-03T10:59:48;99798.62;;;18.76;43.43
75867;BME280;64513;56.258;43.980;2023-04-03T11:05:21;99803.28;;;18.67;43.28
75867;BME280;64513;56.258;43.980;2023-04-03T11:07:47;99807.27;;;18.61;42.83
75867;BME280;64513;56.258;43.980;2023-04-03T11:13:19;99800.98;;;18.56;43.19
75867;BME280;64513;56.258;43.980;2023-04-03T11:15:44;99800.86;;;18.53;43.47
75867;BME280;64513;56.258;43.980;2023-04-03T11:23:59;99797.34;;;18.40;43.13
75867;BME280;64513;56.258;43.980;2023-04-03T11:26:27;99793.28;;;18.34;43.08
75867;BME280;64513;56.258;43.980;2023-04-03T11:37:16;99783.62;;;18.21;43.60
75867;BME280;64513;56.258;43.980;2023-04-03T11:39:40;99783.81;;;18.16;43.23
75867;BME280;64513;56.258;43.980;2023-04-03T11:53:45;99768.97;;;17.98;43.57
75867;BME280;64513;56.258;43.980;2023-04-03T11:56:30;99763.16;;;17.96;43.83
75867;BME280;64513;56.258;43.980;2023-04-03T12:01:58;99764.02;;;17.87;43.45
75867;BME280;64513;56.258;43.980;2023-04-03T12:04:27;99763.09;;;17.83;43.42
75867;BME280;64513;56.258;43.980;2023-04-03T12:06:58;99766.86;;;17.82;43.65
75867;BME280;64513;56.258;43.980;2023-04-03T12:14:52;99757.48;;;17.76;43.75
75867;BME280;64513;56.258;43.980;2023-04-03T12:17:20;99742.07;;;17.73;43.49
75867;BME280;64513;56.258;43.980;2023-04-03T12:19:44;99745.86;;;17.72;43.22
75867;BME280;64513;56.258;43.980;2023-04-03T12:22:11;99748.06;;;17.70;43.19
75867;BME280;64513;56.258;43.980;2023-04-03T12:25:41;99745.39;;;17.70;43.25
75867;BME280;64513;56.258;43.980;2023-04-03T12:47:56;99738.64;;;17.64;44.40
75867;BME280;64513;56.258;43.980;2023-04-03T13:01:41;99738.73;;;17.47;44.75
75867;BME280;64513;56.258;43.980;2023-04-03T13:04:06;99744.25;;;17.42;44.85
75867;BME280;64513;56.258;43.980;2023-04-03T13:06:50;99739.55;;;17.39;44.75
75867;BME280;64513;56.258;43.980;2023-04-03T13:09:35;99739.72;;;17.34;44.71
75867;BME280;64513;56.258;43.980;2023-04-03T13:12:19;99746.16;;;17.33;44.77
75867;BME280;64513;56.258;43.980;2023-04-03T13:15:13;99741.48;;;17.30;44.82
75867;BME280;64513;56.258;43.980;2023-04-03T13:17:29;99744.80;;;17.27;44.90
75867;BME280;64513;56.258;43.980;2023-04-03T13:19:54;99743.86;;;17.23;44.90
75867;BME280;64513;56.258;43.980;2023-04-03T13:25:07;99737.58;;;17.18;44.82
75867;BME280;64513;56.258;43.980;2023-04-03T13:27:33;99735.22;;;17.17;45.04
75867;BME280;64513;56.258;43.980;2023-04-03T13:29:58;99734.78;;;17.15;45.13
75867;BME280;64513;56.258;43.980;2023-04-03T13:32:25;99740.45;;;17.13;44.82
75867;BME280;64513;56.258;43.980;2023-04-03T13:34:50;99733.53;;;17.12;44.81
75867;BME280;64513;56.258;43.980;2023-04-03T13:37:34;99737.30;;;17.11;44.78
75867;BME280;64513;56.258;43.980;2023-04-03T13:40:18;99738.72;;;17.09;44.88
75867;BME280;64513;56.258;43.980;2023-04-03T13:42:43;99743.28;;;17.08;44.97
75867;BME280;64513;56.258;43.980;2023-04-03T13:45:28;99734.80;;;17.06;44.82
75867;BME280;64513;56.258;43.980;2023-04-03T13:48:06;99736.37;;;17.07;45.13
75867;BME280;64513;56.258;43.980;2023-04-03T13:50:21;99738.57;;;17.05;44.97
75867;BME280;64513;56.258;43.980;2023-04-03T13:53:26;99737.00;;;17.04;44.98
75867;BME280;64513;56.258;43.980;2023-04-03T13:58:58;99737.63;;;17.01;45.01
75867;BME280;64513;56.258;43.980;2023-04-03T14:01:23;99732.95;;;16.98;44.90
75867;BME280;64513;56.258;43.980;2023-04-03T14:06:52;99740.03;;;16.94;44.81
75867;BME280;64513;56.258;43.980;2023-04-03T14:09:18;99726.83;;;16.89;44.92
75867;BME280;64513;56.258;43.980;2023-04-03T14:11:43;99734.37;;;16.87;44.99
75867;BME280;64513;56.258;43.980;2023-04-03T14:14:30;99733.91;;;16.85;45.26
75867;BME280;64513;56.258;43.980;2023-04-03T14:16:57;99737.70;;;16.84;45.25
75867;BME280;64513;56.258;43.980;2023-04-03T14:19:42;99747.92;;;16.82;45.44
75867;BME280;64513;56.258;43.980;2023-04-03T14:22:27;99742.11;;;16.80;45.53
75867;BME280;64513;56.258;43.980;2023-04-03T14:24:52;99749.65;;;16.78;45.26
75867;BME280;64513;56.258;43.980;2023-04-03T14:33:09;99738.84;;;16.66;45.43
75867;BME280;64513;56.258;43.980;2023-04-03T14:35:33;99730.64;;;16.62;45.41
75867;BME280;64513;56.258;43.980;2023-04-03T14:37:57;99741.63;;;16.61;45.20
75867;BME280;64513;56.258;43.980;2023-04-03T14:40:24;99739.59;;;16.58;45.23
75867;BME280;64513;56.258;43.980;2023-04-03T14:42:48;99733.30;;;16.54;45.24
75867;BME280;64513;56.258;43.980;2023-04-03T14:45:13;99740.88;;;16.52;45.18
75867;BME280;64513;56.258;43.980;2023-04-03T14:50:25;99745.27;;;16.47;45.57
75867;BME280;64513;56.258;43.980;2023-04-03T14:52:52;99745.89;;;16.44;45.25
75867;BME280;64513;56.258;43.980;2023-04-03T14:55:18;99751.84;;;16.41;45.29
75867;BME280;64513;56.258;43.980;2023-04-03T14:57:43;99746.35;;;16.38;45.60
75867;BME280;64513;56.258;43.980;2023-04-03T15:00:40;99734.45;;;16.35;45.48
75867;BME280;64513;56.258;43.980;2023-04-03T15:02:36;99736.95;;;16.32;45.48
75867;BME280;64513;56.258;43.980;2023-04-03T15:05:04;99731.45;;;16.28;45.58
75867;BME280;64513;56.258;43.980;2023-04-03T15:07:30;99732.08;;;16.25;45.63
75867;BME280;64513;56.258;43.980;2023-04-03T15:09:55;99736.48;;;16.21;45.60
75867;BME280;64513;56.258;43.980;2023-04-03T15:12:19;99731.78;;;16.18;45.59
75867;BME280;64513;56.258;43.980;2023-04-03T15:14:43;99732.39;;;16.15;45.67
75867;BME280;64513;56.258;43.980;2023-04-03T15:19:53;99735.83;;;16.07;45.94
75867;BME280;64513;56.258;43.980;2023-04-03T15:22:18;99739.14;;;16.04;45.92
75867;BME280;64513;56.258;43.980;2023-04-03T15:24:44;99730.19;;;16.00;45.88
75867;BME280;64513;56.258;43.980;2023-04-03T15:27:08;99741.48;;;15.97;45.94
75867;BME280;64513;56.258;43.980;2023-04-03T15:29:33;99739.73;;;15.92;45.80
75867;BME280;64513;56.258;43.980;2023-04-03T15:31:57;99731.26;;;15.90;45.83
75867;BME280;64513;56.258;43.980;2023-04-03T15:34:21;99730.34;;;15.86;45.89
75867;BME280;64513;56.258;43.980;2023-04-03T15:36:45;99731.26;;;15.82;45.88
75867;BME280;64513;56.258;43.980;2023-04-03T15:39:09;99732.19;;;15.77;45.80
75867;BME280;64513;56.258;43.980;2023-04-03T15:41:33;99724.05;;;15.73;45.76
75867;BME280;64513;56.258;43.980;2023-04-03T15:43:57;99721.52;;;15.68;45.90
75867;BME280;64513;56.258;43.980;2023-04-03T15:46:22;99723.23;;;15.64;46.07
75867;BME280;64513;56.258;43.980;2023-04-03T15:48:46;99724.94;;;15.60;45.88
75867;BME280;64513;56.258;43.980;2023-04-03T15:51:11;99726.67;;;15.56;46.01
75867;BME280;64513;56.258;43.980;2023-04-03T15:53:35;99732.89;;;15.52;46.07
75867;BME280;64513;56.258;43.980;2023-04-03T15:55:59;99731.14;;;15.47;46.13
75867;BME280;64513;56.258;43.980;2023-04-03T15:58:23;99730.18;;;15.43;46.29
75867;BME280;64513;56.258;43.980;2023-04-03T16:00:47;99731.91;;;15.39;46.15